Time;durP1;ratioP1;P1;durP2;ratioP2;P2;SDS_P1;SDS_P2;PMS_P1;PMS_P2;Temp;Humidity;BMP_temperature;BMP_pressure;BME280_temperature;BME280_humidity;BME280_pressure;Samples;Min_cycle;Max_cycle;Signal;HPM_P1;HPM_P2
2023/06/29 00:01:55;;;;;;;3.28;1.80;;;;;;;;;;5034755;28;20029;-82
2023/06/29 00:04:25;;;;;;;2.67;1.85;;;;;;;;;;5036153;28;20059;-83
2023/06/29 00:06:52;;;;;;;2.67;1.83;;;;;;;;;;5034560;28;20033;-82
2023/06/29 00:09:19;;;;;;;3.60;1.98;;;;;;;;;;5035633;28;20041;-82
2023/06/29 00:11:44;;;;;;;5.40;2.08;;;;;;;;;;5035775;28;20049;-83
2023/06/29 00:14:10;;;;;;;3.50;1.92;;;;;;;;;;5035684;28;20037;-82
2023/06/29 00:16:35;;;;;;;3.53;1.90;;;;;;;;;;5036314;28;20099;-81
2023/06/29 00:19:01;;;;;;;2.90;1.90;;;;;;;;;;5034756;28;20108;-82
2023/06/29 00:21:28;;;;;;;5.32;2.20;;;;;;;;;;5018090;28;20025;-81
2023/06/29 00:23:54;;;;;;;3.03;1.90;;;;;;;;;;5034867;28;20040;-82
2023/06/29 00:26:20;;;;;;;3.88;1.65;;;;;;;;;;5034796;28;20037;-82
2023/06/29 00:28:46;;;;;;;3.63;2.00;;;;;;;;;;5033782;28;20041;-82
2023/06/29 00:31:11;;;;;;;3.60;2.00;;;;;;;;;;5032038;28;20452;-82
2023/06/29 00:33:37;;;;;;;3.75;1.90;;;;;;;;;;5017855;28;20040;-82
2023/06/29 00:36:03;;;;;;;3.65;2.10;;;;;;;;;;5035916;28;20044;-83
2023/06/29 00:38:29;;;;;;;6.45;2.03;;;;;;;;;;5035553;28;20423;-82
2023/06/29 00:40:55;;;;;;;4.05;2.00;;;;;;;;;;5034060;28;20025;-83
2023/06/29 00:43:20;;;;;;;3.55;1.88;;;;;;;;;;5051251;28;20044;-82
2023/06/29 00:45:46;;;;;;;4.25;1.90;;;;;;;;;;5035488;28;20044;-82
2023/06/29 00:48:12;;;;;;;3.22;1.90;;;;;;;;;;5032007;28;20072;-83
2023/06/29 00:50:39;;;;;;;2.85;2.05;;;;;;;;;;5034371;28;20036;-82
2023/06/29 00:53:05;;;;;;;4.10;1.90;;;;;;;;;;5035604;28;20108;-83
2023/06/29 00:55:30;;;;;;;8.25;1.90;;;;;;;;;;5025836;28;20065;-82
2023/06/29 00:57:57;;;;;;;3.13;1.80;;;;;;;;;;5035644;28;20037;-83
2023/06/29 01:00:23;;;;;;;5.40;1.90;;;;;;;;;;5016867;28;20034;-82
2023/06/29 01:02:49;;;;;;;4.13;1.95;;;;;;;;;;5033614;28;20037;-83
2023/06/29 01:05:16;;;;;;;7.60;2.08;;;;;;;;;;5033974;28;20045;-83
2023/06/29 01:07:56;;;;;;;4.95;2.00;;;;;;;;;;5034779;28;20028;-83
2023/06/29 01:10:25;;;;;;;2.40;1.67;;;;;;;;;;5033598;28;20037;-83
2023/06/29 01:12:53;;;;;;;4.97;1.80;;;;;;;;;;5033578;28;20069;-83
2023/06/29 01:15:20;;;;;;;3.28;1.90;;;;;;;;;;5034658;28;20036;-82
2023/06/29 01:17:47;;;;;;;2.17;1.70;;;;;;;;;;5033267;28;20131;-82
2023/06/29 01:20:15;;;;;;;3.92;1.90;;;;;;;;;;5041046;28;20033;-82
2023/06/29 01:23:06;;;;;;;2.75;1.75;;;;;;;;;;5037925;28;20479;-82
2023/06/29 01:25:33;;;;;;;4.25;2.08;;;;;;;;;;5033629;28;20041;-83
2023/06/29 01:27:58;;;;;;;4.13;1.90;;;;;;;;;;5037918;28;20036;-83
2023/06/29 01:30:26;;;;;;;3.15;2.15;;;;;;;;;;5036688;28;20116;-82
2023/06/29 01:32:55;;;;;;;3.30;1.90;;;;;;;;;;5036608;28;20099;-81
2023/06/29 01:35:20;;;;;;;3.30;1.88;;;;;;;;;;5038575;28;20029;-82
2023/06/29 01:38:01;;;;;;;6.45;2.00;;;;;;;;;;5037121;28;20041;-83
2023/06/29 01:40:31;;;;;;;3.08;1.90;;;;;;;;;;5007379;28;20140;-83
2023/06/29 01:42:57;;;;;;;3.22;1.90;;;;;;;;;;5037233;28;20033;-83
2023/06/29 01:45:24;;;;;;;3.85;2.00;;;;;;;;;;5052402;28;20041;-82
2023/06/29 01:47:53;;;;;;;4.30;1.90;;;;;;;;;;5037490;28;20124;-83
2023/06/29 01:50:19;;;;;;;6.15;2.20;;;;;;;;;;5036368;28;20029;-82
2023/06/29 01:52:45;;;;;;;4.97;2.10;;;;;;;;;;5038345;28;20091;-83
2023/06/29 01:55:11;;;;;;;4.85;2.00;;;;;;;;;;5036398;28;20033;-81
2023/06/29 01:57:37;;;;;;;3.50;1.92;;;;;;;;;;5049450;28;20037;-82
2023/06/29 02:00:03;;;;;;;4.22;2.00;;;;;;;;;;5036810;28;20083;-82
2023/06/29 02:02:39;;;;;;;3.90;1.60;;;;;;;;;;5037631;28;20112;-82
2023/06/29 02:05:05;;;;;;;3.85;2.10;;;;;;;;;;5037832;28;20049;-82
2023/06/29 02:07:31;;;;;;;4.95;2.00;;;;;;;;;;5035679;28;20033;-83
2023/06/29 02:09:56;;;;;;;2.97;1.92;;;;;;;;;;5037111;28;20030;-82
2023/06/29 02:12:23;;;;;;;4.82;2.00;;;;;;;;;;5036463;28;20042;-82
2023/06/29 02:14:48;;;;;;;3.72;2.03;;;;;;;;;;5034625;28;20083;-82
2023/06/29 02:17:15;;;;;;;4.78;1.88;;;;;;;;;;5027369;28;20603;-81
2023/06/29 02:19:41;;;;;;;3.08;1.80;;;;;;;;;;5036535;28;20167;-82
2023/06/29 02:22:06;;;;;;;2.78;1.85;;;;;;;;;;5020165;28;20053;-81
2023/06/29 02:24:32;;;;;;;4.20;1.90;;;;;;;;;;5053542;28;20056;-82
2023/06/29 02:26:59;;;;;;;2.67;1.80;;;;;;;;;;5036794;28;20503;-82
2023/06/29 02:29:24;;;;;;;5.78;1.98;;;;;;;;;;5037043;28;20124;-83
2023/06/29 02:31:52;;;;;;;3.55;1.90;;;;;;;;;;5037012;28;20029;-82
2023/06/29 02:34:18;;;;;;;2.70;2.05;;;;;;;;;;5036100;28;20473;-81
2023/06/29 02:36:44;;;;;;;3.55;1.90;;;;;;;;;;5019957;28;20108;-82
2023/06/29 02:39:13;;;;;;;2.20;1.80;;;;;;;;;;5032954;28;20030;-82
2023/06/29 02:41:39;;;;;;;2.85;1.98;;;;;;;;;;5037853;28;20510;-82
2023/06/29 02:44:04;;;;;;;5.53;2.08;;;;;;;;;;5037291;28;20654;-82
2023/06/29 02:46:30;;;;;;;3.03;1.80;;;;;;;;;;5036266;28;20398;-82
2023/06/29 02:48:56;;;;;;;3.28;1.88;;;;;;;;;;5035325;28;20111;-81
2023/06/29 02:51:21;;;;;;;6.68;2.00;;;;;;;;;;5036289;28;20030;-81
2023/06/29 02:53:48;;;;;;;5.22;1.90;;;;;;;;;;5037286;28;20028;-83
2023/06/29 02:56:13;;;;;;;3.90;2.08;;;;;;;;;;5035721;28;20123;-82
2023/06/29 02:58:39;;;;;;;4.35;2.00;;;;;;;;;;5035974;28;20034;-82
2023/06/29 03:01:08;;;;;;;3.80;1.90;;;;;;;;;;5019897;28;20021;-82
2023/06/29 03:03:34;;;;;;;3.83;1.77;;;;;;;;;;5037245;28;20021;-82
2023/06/29 03:05:59;;;;;;;4.97;2.25;;;;;;;;;;5034713;28;20491;-82
2023/06/29 03:08:28;;;;;;;6.88;1.90;;;;;;;;;;5035292;28;20029;-82
2023/06/29 03:10:57;;;;;;;5.32;2.05;;;;;;;;;;5031909;28;20037;-82
2023/06/29 03:13:22;;;;;;;2.95;1.92;;;;;;;;;;5036949;28;20060;-82
2023/06/29 03:15:48;;;;;;;3.35;2.08;;;;;;;;;;5037221;28;20040;-82
2023/06/29 03:18:13;;;;;;;4.18;2.00;;;;;;;;;;5036957;28;20045;-82
2023/06/29 03:20:39;;;;;;;6.38;2.20;;;;;;;;;;5036703;28;20033;-82
2023/06/29 03:23:04;;;;;;;4.22;1.95;;;;;;;;;;5036551;28;20037;-82
2023/06/29 03:25:30;;;;;;;3.60;2.10;;;;;;;;;;5035761;28;20064;-82
2023/06/29 03:27:56;;;;;;;2.80;1.98;;;;;;;;;;5036402;28;20421;-82
2023/06/29 03:30:21;;;;;;;4.97;2.17;;;;;;;;;;5035068;28;20045;-81
2023/06/29 03:32:47;;;;;;;4.25;2.08;;;;;;;;;;5032140;28;20037;-81
2023/06/29 03:35:12;;;;;;;4.45;1.92;;;;;;;;;;5035875;28;20045;-82
2023/06/29 03:37:38;;;;;;;4.25;1.95;;;;;;;;;;5036351;28;20449;-82
2023/06/29 03:40:04;;;;;;;3.90;2.17;;;;;;;;;;5033752;28;20792;-82
2023/06/29 03:42:29;;;;;;;5.95;2.03;;;;;;;;;;5032934;28;20033;-82
2023/06/29 03:44:55;;;;;;;4.47;2.00;;;;;;;;;;5035948;28;20095;-82
2023/06/29 03:47:20;;;;;;;7.03;2.15;;;;;;;;;;5035725;28;20037;-81
2023/06/29 03:49:47;;;;;;;3.40;2.13;;;;;;;;;;5035483;28;20406;-81
2023/06/29 03:52:12;;;;;;;4.75;2.08;;;;;;;;;;5034719;28;20037;-81
2023/06/29 03:54:38;;;;;;;3.65;1.90;;;;;;;;;;5034276;28;20047;-82
2023/06/29 03:57:04;;;;;;;3.58;2.00;;;;;;;;;;5035464;28;20025;-82
2023/06/29 03:59:29;;;;;;;7.97;2.33;;;;;;;;;;5034573;28;20091;-82
2023/06/29 04:01:55;;;;;;;3.95;2.03;;;;;;;;;;5035671;28;20441;-82
2023/06/29 04:04:20;;;;;;;4.25;2.10;;;;;;;;;;5035523;28;20123;-83
2023/06/29 04:06:46;;;;;;;4.63;1.92;;;;;;;;;;5033125;28;20037;-82
2023/06/29 04:09:11;;;;;;;3.70;1.80;;;;;;;;;;5035052;28;20118;-81
2023/06/29 04:11:37;;;;;;;3.72;2.00;;;;;;;;;;5033823;28;20064;-82
2023/06/29 04:14:03;;;;;;;3.92;2.05;;;;;;;;;;5035882;28;20419;-82
2023/06/29 04:16:28;;;;;;;3.53;1.92;;;;;;;;;;5033900;28;20037;-82
2023/06/29 04:18:54;;;;;;;3.15;1.80;;;;;;;;;;5037508;28;20037;-82
2023/06/29 04:21:19;;;;;;;6.80;2.10;;;;;;;;;;5035389;28;20072;-81
2023/06/29 04:23:44;;;;;;;6.45;2.15;;;;;;;;;;5034524;28;20030;-81
2023/06/29 04:26:10;;;;;;;2.60;1.70;;;;;;;;;;5035113;28;20060;-82
2023/06/29 04:28:36;;;;;;;5.13;2.00;;;;;;;;;;5033221;28;20484;-83
2023/06/29 04:31:02;;;;;;;3.30;2.05;;;;;;;;;;5033786;28;20097;-83
2023/06/29 04:33:27;;;;;;;5.72;1.98;;;;;;;;;;5034569;28;20487;-82
2023/06/29 04:35:53;;;;;;;2.92;1.88;;;;;;;;;;5028250;28;20045;-82
2023/06/29 04:38:19;;;;;;;3.03;1.98;;;;;;;;;;5033908;28;20044;-81
2023/06/29 04:40:45;;;;;;;6.45;1.98;;;;;;;;;;5034386;28;20030;-81
2023/06/29 04:43:12;;;;;;;4.45;2.00;;;;;;;;;;5034614;28;20056;-82
2023/06/29 04:45:40;;;;;;;3.10;2.00;;;;;;;;;;5034704;28;20029;-83
2023/06/29 04:48:06;;;;;;;4.50;2.08;;;;;;;;;;5033724;28;20045;-82
2023/06/29 04:50:35;;;;;;;3.85;1.90;;;;;;;;;;5016415;28;20041;-82
2023/06/29 04:53:12;;;;;;;3.67;2.05;;;;;;;;;;5034194;28;20041;-83
2023/06/29 04:55:38;;;;;;;2.90;1.80;;;;;;;;;;5032955;28;20603;-82
2023/06/29 04:58:04;;;;;;;3.72;1.77;;;;;;;;;;5030184;28;20567;-82
2023/06/29 05:00:31;;;;;;;3.90;1.92;;;;;;;;;;5031843;28;20038;-82
2023/06/29 05:02:56;;;;;;;3.67;2.03;;;;;;;;;;5033634;28;20114;-82
2023/06/29 05:05:21;;;;;;;3.28;1.90;;;;;;;;;;5034070;28;20546;-83
2023/06/29 05:07:47;;;;;;;3.65;1.90;;;;;;;;;;5034201;28;20042;-82
2023/06/29 05:10:13;;;;;;;3.42;1.90;;;;;;;;;;5035128;28;20048;-83
2023/06/29 05:12:38;;;;;;;6.75;2.22;;;;;;;;;;5033616;28;20041;-82
2023/06/29 05:15:04;;;;;;;4.65;1.70;;;;;;;;;;5034226;28;20081;-83
2023/06/29 05:17:29;;;;;;;3.35;1.75;;;;;;;;;;5033933;28;20037;-82
2023/06/29 05:19:55;;;;;;;4.10;1.90;;;;;;;;;;5031221;28;20398;-83
2023/06/29 05:22:20;;;;;;;4.88;1.90;;;;;;;;;;5033583;28;20033;-82
2023/06/29 05:24:46;;;;;;;3.95;2.05;;;;;;;;;;5032632;28;20045;-81
2023/06/29 05:27:11;;;;;;;4.22;2.00;;;;;;;;;;5031425;28;20132;-81
2023/06/29 05:29:37;;;;;;;7.20;1.75;;;;;;;;;;5033396;28;20033;-82
2023/06/29 05:32:03;;;;;;;3.75;1.88;;;;;;;;;;5031907;28;20112;-82
2023/06/29 05:34:29;;;;;;;3.63;1.70;;;;;;;;;;5033503;28;20042;-82
2023/06/29 05:36:54;;;;;;;4.95;2.08;;;;;;;;;;5033489;28;20044;-82
2023/06/29 05:39:20;;;;;;;4.07;1.80;;;;;;;;;;5034659;28;20053;-80
2023/06/29 05:41:45;;;;;;;5.32;1.70;;;;;;;;;;5032950;28;20041;-84
2023/06/29 05:44:11;;;;;;;3.75;1.90;;;;;;;;;;5033879;28;20033;-83
2023/06/29 05:46:36;;;;;;;4.80;2.00;;;;;;;;;;5033462;28;20041;-82
2023/06/29 05:49:02;;;;;;;7.72;1.90;;;;;;;;;;5033392;28;20133;-83
2023/06/29 05:51:27;;;;;;;6.15;1.88;;;;;;;;;;5034013;28;20517;-83
2023/06/29 05:53:53;;;;;;;3.13;1.70;;;;;;;;;;5031954;28;20048;-83
2023/06/29 05:56:18;;;;;;;4.68;1.80;;;;;;;;;;5033280;28;20033;-83
2023/06/29 05:58:46;;;;;;;2.65;1.67;;;;;;;;;;5035295;28;20033;-84
2023/06/29 06:01:12;;;;;;;4.55;1.80;;;;;;;;;;5033675;28;20037;-84
2023/06/29 06:03:38;;;;;;;4.80;1.92;;;;;;;;;;5035723;28;20030;-83
2023/06/29 06:06:04;;;;;;;2.17;1.52;;;;;;;;;;5036478;28;20410;-85
2023/06/29 06:08:29;;;;;;;5.13;1.80;;;;;;;;;;5040397;28;20037;-82
2023/06/29 06:10:55;;;;;;;2.25;1.67;;;;;;;;;;5043118;28;20502;-83
2023/06/29 06:13:20;;;;;;;2.90;1.60;;;;;;;;;;5042858;28;20037;-83
2023/06/29 06:15:46;;;;;;;5.60;1.65;;;;;;;;;;5037221;28;20033;-84
2023/06/29 06:18:11;;;;;;;3.78;1.75;;;;;;;;;;5035784;28;20043;-85
2023/06/29 06:20:37;;;;;;;3.08;1.60;;;;;;;;;;5037057;28;20073;-84
2023/06/29 06:23:02;;;;;;;3.35;1.90;;;;;;;;;;5027493;28;20041;-83
2023/06/29 06:25:28;;;;;;;3.53;1.70;;;;;;;;;;5038967;28;20113;-83
2023/06/29 06:27:53;;;;;;;3.42;1.75;;;;;;;;;;5039949;28;20511;-82
2023/06/29 06:30:20;;;;;;;3.05;1.80;;;;;;;;;;5036701;28;20045;-84
2023/06/29 06:32:46;;;;;;;2.90;1.50;;;;;;;;;;5018994;28;20717;-82
2023/06/29 06:35:12;;;;;;;2.85;1.70;;;;;;;;;;5041725;28;20041;-84
2023/06/29 06:37:38;;;;;;;3.42;1.60;;;;;;;;;;5042426;28;20127;-84
2023/06/29 06:40:07;;;;;;;5.82;1.85;;;;;;;;;;5037285;28;20041;-84
2023/06/29 06:42:36;;;;;;;2.63;1.63;;;;;;;;;;5039374;28;20041;-83
2023/06/29 06:45:03;;;;;;;3.45;1.70;;;;;;;;;;5039231;28;20036;-84
2023/06/29 06:47:33;;;;;;;3.58;1.63;;;;;;;;;;5036036;28;20068;-84
2023/06/29 06:49:59;;;;;;;2.47;1.50;;;;;;;;;;5037701;28;20042;-84
2023/06/29 06:52:25;;;;;;;4.70;1.75;;;;;;;;;;5039667;28;20042;-84
2023/06/29 06:54:51;;;;;;;5.22;1.70;;;;;;;;;;5038579;28;20090;-84
2023/06/29 06:57:17;;;;;;;4.57;2.00;;;;;;;;;;5049445;28;20076;-84
2023/06/29 06:59:43;;;;;;;3.03;1.70;;;;;;;;;;5033781;28;20048;-84
2023/06/29 07:02:08;;;;;;;3.38;1.60;;;;;;;;;;5034682;28;20029;-83
2023/06/29 07:04:33;;;;;;;4.40;1.70;;;;;;;;;;5034613;28;20041;-84
2023/06/29 07:06:59;;;;;;;3.17;1.80;;;;;;;;;;5035757;28;20033;-83
2023/06/29 07:09:25;;;;;;;3.03;1.50;;;;;;;;;;5035891;28;20073;-83
2023/06/29 07:11:50;;;;;;;2.03;1.48;;;;;;;;;;5039287;28;20041;-85
2023/06/29 07:14:16;;;;;;;7.00;1.80;;;;;;;;;;5040556;28;20752;-84
2023/06/29 07:16:42;;;;;;;4.07;1.58;;;;;;;;;;5038823;28;20040;-83
2023/06/29 07:19:13;;;;;;;2.97;1.52;;;;;;;;;;5035802;28;20045;-83
2023/06/29 07:21:38;;;;;;;4.15;1.70;;;;;;;;;;5033258;28;20137;-82
2023/06/29 07:24:04;;;;;;;3.08;1.60;;;;;;;;;;5033021;28;20095;-83
2023/06/29 07:26:29;;;;;;;6.32;1.73;;;;;;;;;;5034347;28;20056;-83
2023/06/29 07:28:55;;;;;;;4.15;1.70;;;;;;;;;;5025196;28;20028;-83
2023/06/29 07:31:24;;;;;;;2.47;1.65;;;;;;;;;;5033900;28;20033;-83
2023/06/29 07:33:52;;;;;;;4.82;1.48;;;;;;;;;;5033862;28;20041;-84
2023/06/29 07:36:18;;;;;;;2.58;1.40;;;;;;;;;;5033083;28;20044;-84
2023/06/29 07:38:43;;;;;;;3.08;1.60;;;;;;;;;;5034674;28;20040;-83
2023/06/29 07:41:09;;;;;;;3.80;1.83;;;;;;;;;;5034377;28;20073;-82
2023/06/29 07:43:34;;;;;;;4.57;1.70;;;;;;;;;;5034708;28;20049;-83
2023/06/29 07:46:01;;;;;;;5.03;1.70;;;;;;;;;;5034003;28;20034;-81
2023/06/29 07:48:28;;;;;;;3.30;1.60;;;;;;;;;;5038039;28;20033;-86
2023/06/29 07:50:54;;;;;;;4.47;1.85;;;;;;;;;;5035279;28;20422;-83
2023/06/29 07:53:20;;;;;;;4.82;1.70;;;;;;;;;;5035808;28;20049;-84
2023/06/29 07:55:45;;;;;;;2.53;1.58;;;;;;;;;;5034003;28;20017;-84
2023/06/29 07:58:11;;;;;;;3.42;1.95;;;;;;;;;;5034516;28;20044;-84
2023/06/29 08:00:37;;;;;;;3.15;1.75;;;;;;;;;;5034102;28;20045;-84
2023/06/29 08:03:02;;;;;;;3.15;1.80;;;;;;;;;;5033102;28;20029;-84
2023/06/29 08:05:28;;;;;;;5.85;1.80;;;;;;;;;;5048376;28;20680;-84
2023/06/29 08:07:53;;;;;;;4.05;1.70;;;;;;;;;;5034515;28;20045;-83
2023/06/29 08:10:19;;;;;;;4.55;1.90;;;;;;;;;;5033665;28;20044;-85
2023/06/29 08:12:44;;;;;;;6.00;1.80;;;;;;;;;;5036593;28;20048;-85
2023/06/29 08:15:11;;;;;;;4.38;2.00;;;;;;;;;;5034742;28;20045;-84
2023/06/29 08:17:36;;;;;;;3.35;1.83;;;;;;;;;;5033931;28;20059;-84
2023/06/29 08:20:05;;;;;;;7.47;2.20;;;;;;;;;;5035984;28;20055;-83
2023/06/29 08:22:31;;;;;;;4.28;2.00;;;;;;;;;;5034151;28;20108;-83
2023/06/29 08:24:56;;;;;;;3.28;1.85;;;;;;;;;;5033297;28;20161;-83
2023/06/29 08:27:22;;;;;;;4.35;1.85;;;;;;;;;;5033126;28;20033;-83
2023/06/29 08:29:47;;;;;;;5.45;2.13;;;;;;;;;;5033251;28;20037;-84
2023/06/29 08:32:13;;;;;;;5.15;1.95;;;;;;;;;;5033520;28;20048;-84
2023/06/29 08:34:38;;;;;;;4.53;2.20;;;;;;;;;;5031793;28;20033;-83
2023/06/29 08:37:04;;;;;;;5.20;2.08;;;;;;;;;;5033523;28;20041;-84
2023/06/29 08:39:30;;;;;;;3.50;2.20;;;;;;;;;;5031590;28;20041;-83
2023/06/29 08:41:56;;;;;;;5.20;1.90;;;;;;;;;;5032238;28;20041;-85
2023/06/29 08:44:22;;;;;;;5.97;2.00;;;;;;;;;;5032782;28;20040;-84
2023/06/29 08:46:48;;;;;;;3.30;1.95;;;;;;;;;;5031519;28;20478;-84
2023/06/29 08:49:15;;;;;;;4.57;2.30;;;;;;;;;;5031017;28;20783;-86
2023/06/29 08:51:44;;;;;;;5.25;2.10;;;;;;;;;;5033125;28;20031;-83
2023/06/29 08:54:12;;;;;;;4.00;1.88;;;;;;;;;;5032819;28;20045;-83
2023/06/29 08:56:38;;;;;;;5.15;2.00;;;;;;;;;;5030320;28;20449;-83
2023/06/29 08:59:04;;;;;;;2.50;1.60;;;;;;;;;;5032593;28;20068;-83
2023/06/29 09:01:30;;;;;;;4.10;1.95;;;;;;;;;;5033558;28;20064;-83
2023/06/29 09:03:56;;;;;;;6.35;1.92;;;;;;;;;;5044866;28;20435;-85
2023/06/29 09:06:23;;;;;;;3.08;1.63;;;;;;;;;;5032904;28;20481;-85
2023/06/29 09:08:49;;;;;;;2.88;1.73;;;;;;;;;;5031164;28;20698;-85
2023/06/29 09:11:15;;;;;;;4.05;1.80;;;;;;;;;;5032245;28;20483;-85
2023/06/29 09:13:40;;;;;;;3.05;1.80;;;;;;;;;;5032431;28;20034;-83
2023/06/29 09:16:06;;;;;;;3.95;1.80;;;;;;;;;;5032690;28;20491;-82
2023/06/29 09:18:32;;;;;;;3.72;1.90;;;;;;;;;;5031011;28;20086;-83
2023/06/29 09:20:58;;;;;;;5.63;2.00;;;;;;;;;;5032544;28;20104;-83
2023/06/29 09:23:28;;;;;;;4.93;1.80;;;;;;;;;;5032320;28;20112;-85
2023/06/29 09:25:55;;;;;;;3.38;1.67;;;;;;;;;;5032632;28;20471;-85
2023/06/29 09:28:21;;;;;;;4.03;2.00;;;;;;;;;;5028367;28;20380;-85
2023/06/29 09:30:49;;;;;;;3.65;1.92;;;;;;;;;;5031996;28;20040;-83
2023/06/29 09:33:15;;;;;;;2.97;1.70;;;;;;;;;;5031245;28;20025;-83
2023/06/29 09:35:46;;;;;;;4.22;1.75;;;;;;;;;;5024867;28;20040;-83
2023/06/29 09:38:16;;;;;;;4.55;1.80;;;;;;;;;;5032185;28;20057;-83
2023/06/29 09:40:52;;;;;;;5.72;1.88;;;;;;;;;;5032944;28;20122;-85
2023/06/29 09:43:25;;;;;;;2.80;1.70;;;;;;;;;;5033638;28;20103;-83
2023/06/29 09:45:52;;;;;;;4.32;1.63;;;;;;;;;;5035362;28;20130;-83
2023/06/29 09:48:21;;;;;;;4.22;2.00;;;;;;;;;;5034442;28;20065;-84
2023/06/29 09:50:49;;;;;;;3.20;1.83;;;;;;;;;;5033298;28;20482;-84
2023/06/29 09:53:15;;;;;;;3.60;1.77;;;;;;;;;;5034535;28;20988;-85
2023/06/29 09:55:42;;;;;;;3.28;1.90;;;;;;;;;;5035494;28;20033;-85
2023/06/29 09:58:09;;;;;;;2.80;1.80;;;;;;;;;;5035504;28;20079;-83
2023/06/29 10:00:35;;;;;;;4.10;1.80;;;;;;;;;;5035801;28;20034;-83
2023/06/29 10:03:01;;;;;;;2.50;1.42;;;;;;;;;;5034937;28;20028;-85
2023/06/29 10:05:30;;;;;;;2.90;1.60;;;;;;;;;;5036066;28;20029;-83
2023/06/29 10:07:57;;;;;;;4.40;1.80;;;;;;;;;;5036172;28;20026;-83
2023/06/29 10:10:25;;;;;;;3.78;1.60;;;;;;;;;;5035919;28;20025;-85
2023/06/29 10:12:57;;;;;;;3.72;1.77;;;;;;;;;;5035444;28;20032;-85
2023/06/29 10:15:26;;;;;;;4.53;1.70;;;;;;;;;;5028797;28;20068;-85
2023/06/29 10:18:16;;;;;;;3.17;1.85;;;;;;;;;;5035303;28;20064;-85
2023/06/29 10:20:43;;;;;;;4.18;1.80;;;;;;;;;;5034167;28;20124;-85
2023/06/29 10:23:12;;;;;;;3.97;2.10;;;;;;;;;;5035402;28;20063;-85
2023/06/29 10:25:43;;;;;;;4.38;1.77;;;;;;;;;;5035120;28;20056;-85
2023/06/29 10:28:11;;;;;;;7.25;2.08;;;;;;;;;;5034571;28;20036;-83
2023/06/29 10:30:45;;;;;;;5.07;1.95;;;;;;;;;;5035228;28;20041;-84
2023/06/29 10:33:10;;;;;;;4.05;1.80;;;;;;;;;;5032060;28;20132;-83
2023/06/29 10:35:36;;;;;;;4.00;1.70;;;;;;;;;;5034008;28;20029;-83
2023/06/29 10:38:09;;;;;;;3.95;1.80;;;;;;;;;;5035852;28;20523;-83
2023/06/29 10:40:45;;;;;;;2.38;1.60;;;;;;;;;;5034990;28;20045;-83
2023/06/29 10:43:11;;;;;;;3.75;1.83;;;;;;;;;;5034960;28;20166;-83
2023/06/29 10:45:38;;;;;;;4.65;2.08;;;;;;;;;;5035433;28;20084;-85
2023/06/29 10:48:06;;;;;;;3.67;1.85;;;;;;;;;;5035368;28;20546;-85
2023/06/29 10:50:35;;;;;;;4.13;1.80;;;;;;;;;;5016584;28;20049;-86
2023/06/29 10:53:02;;;;;;;5.47;1.60;;;;;;;;;;5034555;28;20032;-86
2023/06/29 10:55:50;;;;;;;2.70;1.60;;;;;;;;;;5034481;28;20111;-83
2023/06/29 10:58:40;;;;;;;8.18;1.88;;;;;;;;;;5050137;23;20042;-86
2023/06/29 11:01:05;;;;;;;3.95;1.70;;;;;;;;;;5026391;28;20057;-85
2023/06/29 11:03:32;;;;;;;5.05;1.70;;;;;;;;;;5015784;28;20034;-82
2023/06/29 11:05:58;;;;;;;2.97;1.75;;;;;;;;;;5024983;28;20033;-83
2023/06/29 11:08:24;;;;;;;3.85;1.80;;;;;;;;;;5027145;28;20041;-82
2023/06/29 11:10:50;;;;;;;5.70;1.80;;;;;;;;;;5016977;28;20120;-83
2023/06/29 11:13:18;;;;;;;4.63;1.90;;;;;;;;;;5029421;28;20038;-85
2023/06/29 11:15:44;;;;;;;4.45;1.80;;;;;;;;;;5023808;28;20030;-82
2023/06/29 11:18:10;;;;;;;4.97;1.90;;;;;;;;;;5025148;28;20087;-83
2023/06/29 11:20:39;;;;;;;6.65;1.90;;;;;;;;;;5026679;28;20621;-82
2023/06/29 11:23:07;;;;;;;4.72;1.95;;;;;;;;;;5017690;28;20108;-81
2023/06/29 11:25:33;;;;;;;4.55;1.70;;;;;;;;;;5032656;28;20084;-82
2023/06/29 11:27:59;;;;;;;3.05;1.63;;;;;;;;;;5029219;28;20034;-83
2023/06/29 11:30:25;;;;;;;4.70;1.83;;;;;;;;;;5039303;28;20494;-83
2023/06/29 11:32:52;;;;;;;2.90;1.80;;;;;;;;;;5028406;28;20049;-84
2023/06/29 11:35:22;;;;;;;3.47;1.60;;;;;;;;;;5039766;28;20040;-82
2023/06/29 11:37:56;;;;;;;4.50;1.70;;;;;;;;;;5019121;28;20084;-83
2023/06/29 11:40:23;;;;;;;2.83;1.67;;;;;;;;;;5021633;28;20045;-84
2023/06/29 11:42:49;;;;;;;5.13;2.00;;;;;;;;;;5016152;28;20475;-85
2023/06/29 11:45:16;;;;;;;3.08;1.80;;;;;;;;;;5035050;28;20076;-83
2023/06/29 11:47:51;;;;;;;4.20;1.70;;;;;;;;;;5032864;28;20048;-82
2023/06/29 11:50:17;;;;;;;3.50;1.70;;;;;;;;;;5029525;28;20038;-82
2023/06/29 11:52:44;;;;;;;4.82;1.85;;;;;;;;;;5018693;28;20124;-82
2023/06/29 11:55:12;;;;;;;4.40;1.60;;;;;;;;;;5019345;28;20065;-83
2023/06/29 11:57:39;;;;;;;3.92;1.70;;;;;;;;;;5019370;28;20041;-84
2023/06/29 12:00:29;;;;;;;5.15;1.90;;;;;;;;;;5016947;28;20057;-83
2023/06/29 12:02:55;;;;;;;3.42;1.75;;;;;;;;;;5009810;28;20491;-83
2023/06/29 12:05:26;;;;;;;3.30;1.70;;;;;;;;;;5027104;28;20026;-82
2023/06/29 12:07:51;;;;;;;4.85;1.90;;;;;;;;;;5021937;28;20423;-83
2023/06/29 12:10:21;;;;;;;6.60;2.00;;;;;;;;;;5023714;28;20030;-83
2023/06/29 12:12:55;;;;;;;3.50;1.92;;;;;;;;;;5030619;28;20040;-84
2023/06/29 12:15:27;;;;;;;3.15;1.70;;;;;;;;;;5023109;28;20053;-84
2023/06/29 12:18:05;;;;;;;3.25;1.80;;;;;;;;;;5021388;28;20037;-81
2023/06/29 12:20:42;;;;;;;5.68;1.90;;;;;;;;;;5026375;28;20045;-83
2023/06/29 12:23:10;;;;;;;3.58;1.60;;;;;;;;;;5008256;28;20025;-82
2023/06/29 12:25:44;;;;;;;6.22;2.00;;;;;;;;;;5043663;28;20030;-82
2023/06/29 12:28:09;;;;;;;4.45;1.95;;;;;;;;;;5036230;28;20596;-85
2023/06/29 12:30:35;;;;;;;2.88;1.70;;;;;;;;;;5019916;28;20025;-82
2023/06/29 12:33:01;;;;;;;2.78;1.70;;;;;;;;;;5020338;28;20025;-86
2023/06/29 12:35:26;;;;;;;3.53;1.95;;;;;;;;;;5019656;28;20038;-82
2023/06/29 12:37:53;;;;;;;3.40;1.95;;;;;;;;;;5028320;28;20041;-82
2023/06/29 12:40:18;;;;;;;3.70;1.83;;;;;;;;;;5028947;28;20018;-83
2023/06/29 12:42:44;;;;;;;3.55;1.80;;;;;;;;;;5036129;28;20489;-85
2023/06/29 12:45:10;;;;;;;3.30;1.60;;;;;;;;;;5024639;28;20051;-83
2023/06/29 12:47:35;;;;;;;7.03;1.70;;;;;;;;;;5009773;28;20112;-83
2023/06/29 12:50:02;;;;;;;2.75;1.60;;;;;;;;;;5020646;28;20042;-83
2023/06/29 12:52:28;;;;;;;3.17;1.77;;;;;;;;;;5015081;28;20048;-83
2023/06/29 12:54:55;;;;;;;4.53;1.60;;;;;;;;;;5017260;28;20038;-83
2023/06/29 12:57:28;;;;;;;3.47;1.65;;;;;;;;;;5019607;28;20034;-83
2023/06/29 12:59:58;;;;;;;4.93;1.90;;;;;;;;;;5015881;28;20041;-82
2023/06/29 13:02:24;;;;;;;3.30;1.70;;;;;;;;;;5035313;28;20041;-86
2023/06/29 13:04:50;;;;;;;3.78;1.60;;;;;;;;;;5017647;28;20371;-86
2023/06/29 13:07:17;;;;;;;2.20;1.60;;;;;;;;;;5022552;28;20038;-86
2023/06/29 13:09:51;;;;;;;2.78;1.60;;;;;;;;;;5021937;28;20045;-84
2023/06/29 13:12:17;;;;;;;5.78;1.90;;;;;;;;;;5039473;28;20034;-86
2023/06/29 13:14:44;;;;;;;3.38;1.60;;;;;;;;;;5018486;28;20132;-85
2023/06/29 13:17:10;;;;;;;3.65;1.45;;;;;;;;;;5027625;28;20044;-87
2023/06/29 13:19:38;;;;;;;5.55;1.60;;;;;;;;;;5043582;28;20030;-84
2023/06/29 13:22:04;;;;;;;2.40;1.70;;;;;;;;;;5033544;28;20029;-87
2023/06/29 13:24:30;;;;;;;5.93;1.80;;;;;;;;;;5036788;28;20037;-85
2023/06/29 13:26:56;;;;;;;4.05;1.58;;;;;;;;;;5039749;28;20065;-84
2023/06/29 13:29:22;;;;;;;2.95;1.55;;;;;;;;;;5033391;28;20033;-85
2023/06/29 13:31:47;;;;;;;2.60;1.83;;;;;;;;;;5040069;28;20039;-86
2023/06/29 13:34:13;;;;;;;5.22;1.75;;;;;;;;;;5038973;28;20249;-86
2023/06/29 13:36:39;;;;;;;4.32;1.70;;;;;;;;;;5042044;28;20033;-85
2023/06/29 13:39:04;;;;;;;3.85;1.88;;;;;;;;;;5044232;28;20049;-86
2023/06/29 13:41:41;;;;;;;3.15;1.70;;;;;;;;;;5057861;28;20034;-87
2023/06/29 13:44:09;;;;;;;4.30;1.85;;;;;;;;;;5034175;28;20045;-86
2023/06/29 13:46:35;;;;;;;4.00;2.08;;;;;;;;;;5041664;28;20100;-86
2023/06/29 13:49:02;;;;;;;4.72;1.98;;;;;;;;;;5030051;28;20045;-84
2023/06/29 13:51:30;;;;;;;2.63;1.80;;;;;;;;;;5025804;28;20044;-86
2023/06/29 13:53:56;;;;;;;5.70;1.80;;;;;;;;;;5031242;28;20040;-85
2023/06/29 13:56:22;;;;;;;2.72;1.90;;;;;;;;;;5039691;28;20038;-84
2023/06/29 13:58:49;;;;;;;7.10;1.92;;;;;;;;;;5025843;28;20061;-85
2023/06/29 14:01:14;;;;;;;2.63;1.83;;;;;;;;;;5032184;28;20041;-86
2023/06/29 14:03:40;;;;;;;3.35;1.90;;;;;;;;;;5026296;28;20130;-86
2023/06/29 14:06:06;;;;;;;3.42;1.90;;;;;;;;;;5042294;28;20744;-85
2023/06/29 14:08:31;;;;;;;4.68;2.00;;;;;;;;;;5039282;28;20041;-86
2023/06/29 14:10:57;;;;;;;2.78;1.95;;;;;;;;;;5040412;28;20037;-84
2023/06/29 14:13:22;;;;;;;4.95;2.20;;;;;;;;;;5029194;28;20038;-85
2023/06/29 14:15:48;;;;;;;6.15;1.90;;;;;;;;;;5029466;28;20041;-84
2023/06/29 14:18:13;;;;;;;4.63;2.10;;;;;;;;;;5041338;28;20032;-84
2023/06/29 14:20:39;;;;;;;4.93;2.10;;;;;;;;;;5035388;28;20037;-83
2023/06/29 14:23:05;;;;;;;3.47;2.03;;;;;;;;;;5030443;28;20118;-85
2023/06/29 14:25:30;;;;;;;2.72;1.90;;;;;;;;;;5033017;28;20029;-85
2023/06/29 14:27:55;;;;;;;3.80;2.00;;;;;;;;;;5029853;28;20122;-84
2023/06/29 14:30:21;;;;;;;3.17;2.00;;;;;;;;;;5046277;28;20073;-83
2023/06/29 14:32:47;;;;;;;3.08;2.10;;;;;;;;;;5026894;28;20038;-85
2023/06/29 14:35:13;;;;;;;5.00;2.35;;;;;;;;;;5028628;28;20042;-85
2023/06/29 14:37:38;;;;;;;4.82;2.45;;;;;;;;;;5031049;28;20037;-84
2023/06/29 14:40:06;;;;;;;3.05;2.22;;;;;;;;;;5030915;28;20037;-85
2023/06/29 14:42:32;;;;;;;5.20;2.33;;;;;;;;;;5036851;28;20306;-86